createdAt,value
2023-05-01T00:03:47.799Z,101627.56
2023-05-01T00:07:49.621Z,101630.44
2023-05-01T00:11:51.065Z,101623.88
2023-05-01T00:15:53.938Z,101624.41
2023-05-01T00:19:55.650Z,101629.31
2023-05-01T00:23:57.353Z,101622.16
2023-05-01T00:27:59.980Z,101622.16
2023-05-01T00:32:01.456Z,101622.16
2023-05-01T00:36:03.348Z,101618.31
2023-05-01T00:40:05.851Z,70141.72
2023-05-01T00:44:07.406Z,70141.72
2023-05-01T00:48:09.488Z,70141.72
2023-05-01T00:52:11.658Z,70141.72
2023-05-01T00:56:13.759Z,70141.72
2023-05-01T01:00:16.781Z,70141.72
2023-05-01T01:04:18.255Z,70141.72
2023-05-01T01:08:34.367Z,70141.72
2023-05-01T01:13:15.223Z,70141.72
2023-05-01T01:17:32.090Z,70141.72
2023-05-01T01:21:43.364Z,70141.72
2023-05-01T01:26:12.381Z,70141.72
2023-05-01T01:30:34.108Z,70141.72
2023-05-01T01:34:44.120Z,70141.72
2023-05-01T01:39:01.473Z,70141.72
2023-05-01T01:43:07.513Z,70141.72
2023-05-01T01:47:13.888Z,70141.72
2023-05-01T01:51:19.863Z,70141.72
2023-05-01T01:55:25.334Z,70141.72
2023-05-01T01:59:30.704Z,70141.72
2023-05-01T02:03:33.622Z,70141.72
2023-05-01T02:07:40.290Z,70141.72
2023-05-01T02:11:42.753Z,70141.72
2023-05-01T02:15:45.865Z,70141.72
2023-05-01T02:19:48.304Z,70141.72
2023-05-01T02:23:49.779Z,70141.72
2023-05-01T02:27:57.544Z,70141.72
2023-05-01T02:32:00.051Z,70141.72
2023-05-01T02:36:01.674Z,70141.72
2023-05-01T02:40:03.966Z,70141.72
2023-05-01T02:44:08.527Z,70141.72
2023-05-01T02:48:13.248Z,70141.72
2023-05-01T02:52:19.626Z,70141.72
2023-05-01T02:56:21.389Z,70141.72
2023-05-01T03:00:23.333Z,70141.72
2023-05-01T03:04:24.926Z,70141.72
2023-05-01T03:08:26.431Z,70141.72
2023-05-01T03:12:27.870Z,70141.72
2023-05-01T03:16:29.351Z,70141.72
2023-05-01T03:20:30.801Z,70141.72
2023-05-01T03:24:32.546Z,70141.72
2023-05-01T03:28:33.983Z,70141.72
2023-05-01T03:32:37.072Z,70141.72
2023-05-01T03:36:38.542Z,70141.72
2023-05-01T03:40:40.761Z,70141.72
2023-05-01T03:44:42.330Z,70141.72
2023-05-01T03:48:43.771Z,70141.72
2023-05-01T03:52:45.234Z,70141.72
2023-05-01T03:56:47.193Z,70141.72
2023-05-01T04:00:50.899Z,70141.72
2023-05-01T04:04:56.348Z,70141.72
2023-05-01T04:08:57.828Z,70141.72
2023-05-01T04:12:59.246Z,70141.72
2023-05-01T04:17:00.870Z,70141.72
2023-05-01T04:21:02.585Z,70141.72
2023-05-01T04:25:04.938Z,70141.72
2023-05-01T04:29:06.382Z,70141.72
2023-05-01T04:33:11.382Z,70141.72
2023-05-01T04:37:16.171Z,70141.72
2023-05-01T04:41:18.589Z,70141.72
2023-05-01T04:45:20.370Z,70141.72
2023-05-01T04:49:22.299Z,70141.72
2023-05-01T04:53:23.737Z,70141.72
2023-05-01T04:57:25.526Z,70141.72
2023-05-01T05:01:27.728Z,70141.72
2023-05-01T05:05:29.216Z,70141.72
2023-05-01T05:09:30.721Z,70141.72
2023-05-01T05:13:32.110Z,70141.72
2023-05-01T05:17:33.541Z,70141.72
2023-05-01T05:21:35.566Z,70141.72
2023-05-01T05:25:37.925Z,70141.72
2023-05-01T05:29:40.213Z,70141.72
2023-05-01T05:33:43.316Z,70141.72
2023-05-01T05:37:46.032Z,70141.72
2023-05-01T05:41:49.099Z,70141.72
2023-05-01T05:45:50.920Z,70141.72
2023-05-01T05:49:52.330Z,70141.72
2023-05-01T05:53:53.871Z,70141.72
2023-05-01T05:57:55.320Z,70141.72
2023-05-01T06:01:56.771Z,70141.72
2023-05-01T06:05:58.877Z,70141.72
2023-05-01T06:10:04.253Z,70141.72
2023-05-01T06:14:05.945Z,70141.72
2023-05-01T06:18:07.871Z,70141.72
2023-05-01T06:22:09.640Z,70141.72
2023-05-01T06:26:11.135Z,70141.72
2023-05-01T06:30:12.878Z,70141.72
2023-05-01T06:34:14.347Z,70141.72
2023-05-01T06:38:16.280Z,70141.72
2023-05-01T06:42:17.739Z,70141.72
2023-05-01T06:46:19.278Z,70141.72
2023-05-01T06:50:20.925Z,70141.72
2023-05-01T06:54:22.357Z,70141.72
2023-05-01T06:58:24.544Z,70141.72
2023-05-01T07:02:26.638Z,70141.72
2023-05-01T07:06:28.698Z,70141.72
2023-05-01T07:10:30.733Z,70141.72
2023-05-01T07:14:32.432Z,70141.72
2023-05-01T07:18:34.731Z,70141.72
2023-05-01T07:22:36.198Z,70141.72
2023-05-01T07:26:38.593Z,70141.72
2023-05-01T07:30:40.150Z,70141.72
2023-05-01T07:34:41.601Z,70141.72
2023-05-01T07:38:43.069Z,70141.72
2023-05-01T07:42:44.707Z,70141.72
2023-05-01T07:46:46.373Z,70141.72
2023-05-01T07:50:47.769Z,70141.72
2023-05-01T07:54:50.914Z,70141.72
2023-05-01T07:58:52.378Z,70141.72
2023-05-01T08:02:54.611Z,70141.72
2023-05-01T08:06:56.195Z,70141.72
2023-05-01T08:10:57.732Z,70141.72
2023-05-01T08:14:59.359Z,70141.72
2023-05-01T08:19:00.911Z,70141.72
2023-05-01T08:23:02.846Z,70141.72
2023-05-01T08:27:04.607Z,70141.72
2023-05-01T08:31:06.075Z,70141.72
2023-05-01T08:35:07.989Z,70141.72
2023-05-01T08:39:09.461Z,70141.72
2023-05-01T08:43:13.024Z,70141.72
2023-05-01T08:47:17.991Z,70141.72
2023-05-01T08:51:23.209Z,70141.72
2023-05-01T08:55:26.234Z,70141.72
2023-05-01T08:59:30.078Z,70141.72
2023-05-01T09:03:33.121Z,70141.72
2023-05-01T09:07:35.220Z,70141.72
2023-05-01T09:11:36.737Z,70141.72
2023-05-01T09:15:38.371Z,70141.72
2023-05-01T09:19:40.964Z,70141.72
2023-05-01T09:23:42.612Z,70141.72
2023-05-01T09:27:44.583Z,70141.72
2023-05-01T09:31:46.015Z,70141.72
2023-05-01T09:35:55.637Z,70141.72
2023-05-01T09:40:08.665Z,70141.72
2023-05-01T09:44:19.162Z,70141.72
2023-05-01T09:48:20.691Z,70141.72
2023-05-01T09:52:26.878Z,70141.72
2023-05-01T09:56:30.084Z,70141.72
2023-05-01T10:00:31.991Z,70141.72
2023-05-01T10:04:34.800Z,70141.72
2023-05-01T10:08:50.121Z,70141.72
2023-05-01T10:12:51.830Z,70141.72
2023-05-01T10:16:53.734Z,70141.72
2023-05-01T10:20:55.238Z,70141.72
2023-05-01T10:24:59.249Z,70141.72
2023-05-01T10:29:02.017Z,70141.72
2023-05-01T10:33:05.276Z,70141.72
2023-05-01T10:37:32.390Z,70141.72
2023-05-01T10:41:58.500Z,70141.72
2023-05-01T10:46:21.221Z,70141.72
2023-05-01T10:50:22.831Z,70141.72
2023-05-01T10:54:27.251Z,70141.72
2023-05-01T10:58:37.472Z,70141.72
2023-05-01T11:02:39.314Z,70141.72
2023-05-01T11:07:08.233Z,70141.72
2023-05-01T11:11:22.763Z,70141.72
2023-05-01T11:15:32.272Z,70141.72
2023-05-01T11:19:36.880Z,70141.72
2023-05-01T11:23:38.569Z,70141.72
2023-05-01T11:27:40.319Z,70141.72
2023-05-01T11:31:41.940Z,70141.72
2023-05-01T11:35:44.260Z,70141.72
2023-05-01T11:39:53.248Z,70141.72
2023-05-01T11:43:57.480Z,70141.72
2023-05-01T11:48:02.872Z,70141.72
2023-05-01T11:52:05.748Z,70141.72
2023-05-01T11:56:28.092Z,70141.72
2023-05-01T12:00:36.634Z,70141.72
2023-05-01T12:04:38.394Z,70141.72
2023-05-01T12:08:45.198Z,70141.72
2023-05-01T12:12:46.760Z,70141.72
2023-05-01T12:16:49.202Z,70141.72
2023-05-01T12:20:52.739Z,70141.72
2023-05-01T12:24:54.614Z,70141.72
2023-05-01T12:29:01.523Z,70141.72
2023-05-01T12:33:30.102Z,70141.72
2023-05-01T12:37:35.036Z,70141.72
2023-05-01T12:41:37.444Z,70141.72
2023-05-01T12:45:40.494Z,70141.72
2023-05-01T12:49:41.980Z,70141.72
2023-05-01T12:53:44.309Z,70141.72
2023-05-01T12:57:54.256Z,70141.72
2023-05-01T13:02:04.817Z,70141.72
2023-05-01T13:06:06.755Z,70141.72
2023-05-01T13:10:08.586Z,70141.72
2023-05-01T13:14:10.690Z,70141.72
2023-05-01T13:18:12.785Z,70141.72
2023-05-01T13:22:14.576Z,70141.72
2023-05-01T13:26:16.922Z,70141.72
2023-05-01T13:30:21.977Z,70141.72
2023-05-01T13:34:31.850Z,70141.72
2023-05-01T13:38:42.439Z,70141.72
2023-05-01T13:42:43.940Z,70141.72
2023-05-01T13:46:46.435Z,70141.72
2023-05-01T13:50:48.212Z,70141.72
2023-05-01T13:54:52.730Z,70141.72
2023-05-01T13:58:54.224Z,70141.72
2023-05-01T14:02:56.524Z,70141.72
2023-05-01T14:06:59.959Z,70141.72
2023-05-01T14:11:05.654Z,70141.72
2023-05-01T14:15:12.072Z,70141.72
2023-05-01T14:19:17.386Z,70141.72
2023-05-01T14:23:20.647Z,70141.72
2023-05-01T14:27:22.271Z,70141.72
2023-05-01T14:31:28.476Z,70141.72
2023-05-01T14:35:30.303Z,70141.72
2023-05-01T14:39:32.898Z,70141.72
2023-05-01T14:43:34.987Z,70141.72
2023-05-01T14:47:39.216Z,70141.72
2023-05-01T14:51:41.105Z,70141.72
2023-05-01T14:55:43.570Z,70141.72
2023-05-01T14:59:45.014Z,70141.72
2023-05-01T15:03:46.752Z,70141.72
2023-05-01T15:07:48.623Z,70141.72
2023-05-01T15:11:50.078Z,70141.72
2023-05-01T15:15:52.633Z,70141.72
2023-05-01T15:19:54.225Z,70141.72
2023-05-01T15:23:56.767Z,70141.72
2023-05-01T15:27:58.195Z,70141.72
2023-05-01T15:32:11.209Z,70141.72
2023-05-01T15:36:13.688Z,70141.72
2023-05-01T15:40:15.184Z,70141.72
2023-05-01T15:44:16.861Z,70141.72
2023-05-01T15:48:18.510Z,70141.72
2023-05-01T15:52:20.036Z,70141.72
2023-05-01T15:56:21.869Z,70141.72
2023-05-01T16:00:23.367Z,70141.72
2023-05-01T16:04:24.783Z,70141.72
2023-05-01T16:08:26.293Z,70141.72
2023-05-01T16:12:28.342Z,70141.72
2023-05-01T16:16:30.289Z,70141.72
2023-05-01T16:20:41.733Z,70141.72
2023-05-01T16:24:43.371Z,70141.72
2023-05-01T16:28:44.788Z,70141.72
2023-05-01T16:32:46.297Z,70141.72
2023-05-01T16:36:47.761Z,70141.72
2023-05-01T16:40:49.313Z,70141.72
2023-05-01T16:44:50.944Z,70141.72
2023-05-01T16:48:52.581Z,70141.72
2023-05-01T16:52:55.079Z,70141.72
2023-05-01T16:56:56.527Z,70141.72
2023-05-01T17:00:58.017Z,70141.72
2023-05-01T17:04:59.506Z,70141.72
2023-05-01T17:09:00.970Z,70141.72
2023-05-01T17:13:02.423Z,70141.72
2023-05-01T17:21:06.670Z,70141.72
2023-05-01T17:25:08.525Z,70141.72
2023-05-01T17:29:09.957Z,70141.72
2023-05-01T17:33:11.427Z,70141.72
2023-05-01T17:37:13.129Z,70141.72
2023-05-01T17:41:15.396Z,70141.72
2023-05-01T17:45:19.248Z,70141.72
2023-05-01T17:49:20.698Z,70141.72
2023-05-01T17:53:23.569Z,70141.72
2023-05-01T17:57:25.678Z,70141.72
2023-05-01T18:01:28.199Z,70141.72
2023-05-01T18:05:29.879Z,70141.72
2023-05-01T18:09:31.406Z,70141.72
2023-05-01T18:13:37.999Z,70141.72
2023-05-01T18:17:39.469Z,70141.72
2023-05-01T18:21:40.981Z,70141.72
2023-05-01T18:25:42.442Z,70141.72
2023-05-01T18:29:44.223Z,70141.72
2023-05-01T18:33:45.647Z,70141.72
2023-05-01T18:37:47.191Z,70141.72
2023-05-01T18:41:49.552Z,70141.72
2023-05-01T18:45:51.173Z,70141.72
2023-05-01T18:49:52.749Z,70141.72
2023-05-01T18:53:54.604Z,70141.72
2023-05-01T18:57:56.503Z,70141.72
2023-05-01T19:01:58.661Z,70141.72
2023-05-01T19:06:00.434Z,70141.72
2023-05-01T19:10:02.356Z,70141.72
2023-05-01T19:14:04.013Z,70141.72
2023-05-01T19:18:05.496Z,70141.72
2023-05-01T19:22:07.399Z,70141.72
2023-05-01T19:26:09.308Z,70141.72
2023-05-01T19:30:11.130Z,70141.72
2023-05-01T19:34:12.659Z,70141.72
2023-05-01T19:38:14.113Z,70141.72
2023-05-01T19:42:15.823Z,70141.72
2023-05-01T19:46:17.319Z,70141.72
2023-05-01T19:50:19.559Z,70141.72
2023-05-01T19:54:22.335Z,70141.72
2023-05-01T19:58:26.650Z,70141.72
2023-05-01T20:02:28.476Z,70141.72
2023-05-01T20:06:30.079Z,70141.72
2023-05-01T20:10:31.644Z,70141.72
2023-05-01T20:14:34.248Z,70141.72
2023-05-01T20:18:35.790Z,70141.72
2023-05-01T20:22:37.374Z,70141.72
2023-05-01T20:26:38.836Z,70141.72
2023-05-01T20:30:41.367Z,70141.72
2023-05-01T20:34:43.823Z,70141.72
2023-05-01T20:38:46.363Z,70141.72
2023-05-01T20:42:47.837Z,70141.72
2023-05-01T20:46:49.337Z,70141.72
2023-05-01T20:50:50.842Z,70141.72
2023-05-01T20:54:52.246Z,70141.72
2023-05-01T20:58:54.358Z,70141.72
2023-05-01T21:02:58.086Z,70141.72
2023-05-01T21:06:59.689Z,70141.72
2023-05-01T21:11:02.121Z,70141.72
2023-05-01T21:15:04.954Z,70141.72
2023-05-01T21:19:06.920Z,70141.72
2023-05-01T21:23:08.496Z,70141.72
2023-05-01T21:27:10.042Z,70141.72
2023-05-01T21:31:12.903Z,70141.72
2023-05-01T21:35:17.364Z,70141.72
2023-05-01T21:39:21.771Z,70141.72
2023-05-01T21:43:23.320Z,70141.72
2023-05-01T21:47:25.783Z,70141.72
2023-05-01T21:51:28.392Z,70141.72
2023-05-01T21:55:30.007Z,70141.72
2023-05-01T21:59:36.065Z,70141.72
2023-05-01T22:03:41.462Z,70141.72
2023-05-01T22:07:45.114Z,70141.72
2023-05-01T22:11:46.637Z,70141.72
2023-05-01T22:15:48.745Z,70141.72
2023-05-01T22:19:51.519Z,70141.72
2023-05-01T22:23:53.079Z,70141.72
2023-05-01T22:27:54.513Z,70141.72
2023-05-01T22:31:56.746Z,70141.72
2023-05-01T22:35:58.354Z,70141.72
2023-05-01T22:40:00.007Z,70141.72
2023-05-01T22:44:01.666Z,70141.72
2023-05-01T22:48:03.288Z,70141.72
2023-05-01T22:52:05.000Z,70141.72
2023-05-01T22:56:06.726Z,70141.72
2023-05-01T23:00:09.647Z,70141.72
2023-05-01T23:04:12.034Z,70141.72
2023-05-01T23:08:13.593Z,70141.72
2023-05-01T23:12:19.596Z,70141.72
2023-05-01T23:16:21.078Z,70141.72
2023-05-01T23:20:25.994Z,70141.72
2023-05-01T23:24:41.304Z,70141.72
2023-05-01T23:28:43.087Z,70141.72
2023-05-01T23:32:44.605Z,70141.72
2023-05-01T23:36:47.133Z,70141.72
2023-05-01T23:40:49.640Z,70141.72
2023-05-01T23:44:51.181Z,70141.72
2023-05-01T23:48:52.616Z,70141.72
2023-05-01T23:52:54.786Z,70141.72
2023-05-01T23:56:56.182Z,70141.72
